sensor_id;sensor_type;location;lat;lon;timestamp;P1;durP1;ratioP1;P2;durP2;ratioP2
6111;SDS011;3086;48.802;9.394;2024-03-06T00:03:22;16.10;;;11.87;;
6111;SDS011;3086;48.802;9.394;2024-03-06T00:06:43;15.30;;;11.90;;
6111;SDS011;3086;48.802;9.394;2024-03-06T00:10:05;15.53;;;12.20;;
6111;SDS011;3086;48.802;9.394;2024-03-06T00:13:27;14.97;;;12.20;;
6111;SDS011;3086;48.802;9.394;2024-03-06T00:16:48;17.33;;;13.07;;
6111;SDS011;3086;48.802;9.394;2024-03-06T00:20:12;15.00;;;12.97;;
6111;SDS011;3086;48.802;9.394;2024-03-06T00:23:34;16.23;;;12.30;;
6111;SDS011;3086;48.802;9.394;2024-03-06T00:26:57;19.47;;;12.67;;
6111;SDS011;3086;48.802;9.394;2024-03-06T00:30:19;14.93;;;12.00;;
6111;SDS011;3086;48.802;9.394;2024-03-06T00:33:40;20.00;;;13.00;;
6111;SDS011;3086;48.802;9.394;2024-03-06T00:37:03;15.73;;;12.27;;
6111;SDS011;3086;48.802;9.394;2024-03-06T00:40:25;16.87;;;12.67;;
6111;SDS011;3086;48.802;9.394;2024-03-06T00:43:46;16.33;;;12.53;;
6111;SDS011;3086;48.802;9.394;2024-03-06T00:47:08;17.70;;;12.83;;
6111;SDS011;3086;48.802;9.394;2024-03-06T00:50:29;14.87;;;12.33;;
6111;SDS011;3086;48.802;9.394;2024-03-06T00:53:53;15.40;;;12.33;;
6111;SDS011;3086;48.802;9.394;2024-03-06T00:57:14;16.60;;;13.10;;
6111;SDS011;3086;48.802;9.394;2024-03-06T01:00:36;16.33;;;12.50;;
6111;SDS011;3086;48.802;9.394;2024-03-06T01:03:58;14.30;;;11.33;;
6111;SDS011;3086;48.802;9.394;2024-03-06T01:07:20;15.37;;;12.43;;
6111;SDS011;3086;48.802;9.394;2024-03-06T01:10:44;18.33;;;12.13;;
6111;SDS011;3086;48.802;9.394;2024-03-06T01:14:06;17.03;;;13.83;;
6111;SDS011;3086;48.802;9.394;2024-03-06T01:17:27;16.97;;;13.30;;
6111;SDS011;3086;48.802;9.394;2024-03-06T01:20:49;19.90;;;14.27;;
6111;SDS011;3086;48.802;9.394;2024-03-06T01:24:10;21.87;;;13.70;;
6111;SDS011;3086;48.802;9.394;2024-03-06T01:27:33;18.43;;;12.90;;
6111;SDS011;3086;48.802;9.394;2024-03-06T01:30:55;19.27;;;13.73;;
6111;SDS011;3086;48.802;9.394;2024-03-06T01:34:18;17.53;;;12.73;;
6111;SDS011;3086;48.802;9.394;2024-03-06T01:37:40;17.47;;;13.50;;
6111;SDS011;3086;48.802;9.394;2024-03-06T01:41:01;16.97;;;12.63;;
6111;SDS011;3086;48.802;9.394;2024-03-06T01:44:26;15.93;;;12.00;;
6111;SDS011;3086;48.802;9.394;2024-03-06T01:47:47;15.60;;;11.60;;
6111;SDS011;3086;48.802;9.394;2024-03-06T01:51:10;14.93;;;12.00;;
6111;SDS011;3086;48.802;9.394;2024-03-06T01:54:32;16.37;;;12.57;;
6111;SDS011;3086;48.802;9.394;2024-03-06T01:57:53;18.33;;;13.77;;
6111;SDS011;3086;48.802;9.394;2024-03-06T02:01:16;21.47;;;13.67;;
6111;SDS011;3086;48.802;9.394;2024-03-06T02:04:39;18.33;;;13.53;;
6111;SDS011;3086;48.802;9.394;2024-03-06T02:08:01;18.00;;;12.17;;
6111;SDS011;3086;48.802;9.394;2024-03-06T02:11:23;19.33;;;13.30;;
6111;SDS011;3086;48.802;9.394;2024-03-06T02:14:45;19.60;;;13.87;;
6111;SDS011;3086;48.802;9.394;2024-03-06T02:18:08;21.53;;;14.03;;
6111;SDS011;3086;48.802;9.394;2024-03-06T02:21:31;17.23;;;12.97;;
6111;SDS011;3086;48.802;9.394;2024-03-06T02:24:53;17.27;;;12.33;;
6111;SDS011;3086;48.802;9.394;2024-03-06T02:28:15;16.90;;;12.40;;
6111;SDS011;3086;48.802;9.394;2024-03-06T02:31:37;15.53;;;12.53;;
6111;SDS011;3086;48.802;9.394;2024-03-06T02:35:00;16.67;;;13.07;;
6111;SDS011;3086;48.802;9.394;2024-03-06T02:38:24;15.37;;;11.10;;
6111;SDS011;3086;48.802;9.394;2024-03-06T02:41:45;16.47;;;11.80;;
6111;SDS011;3086;48.802;9.394;2024-03-06T02:45:09;15.90;;;11.13;;
6111;SDS011;3086;48.802;9.394;2024-03-06T02:48:30;14.03;;;11.37;;
6111;SDS011;3086;48.802;9.394;2024-03-06T02:51:52;13.80;;;10.57;;
6111;SDS011;3086;48.802;9.394;2024-03-06T02:55:15;16.50;;;10.50;;
6111;SDS011;3086;48.802;9.394;2024-03-06T02:58:37;17.50;;;11.50;;
6111;SDS011;3086;48.802;9.394;2024-03-06T03:01:59;15.90;;;11.80;;
6111;SDS011;3086;48.802;9.394;2024-03-06T03:05:21;15.37;;;12.97;;
6111;SDS011;3086;48.802;9.394;2024-03-06T03:08:43;16.07;;;11.80;;
6111;SDS011;3086;48.802;9.394;2024-03-06T03:12:07;16.17;;;10.57;;
6111;SDS011;3086;48.802;9.394;2024-03-06T03:15:31;14.60;;;10.93;;
6111;SDS011;3086;48.802;9.394;2024-03-06T03:18:57;13.40;;;10.27;;
6111;SDS011;3086;48.802;9.394;2024-03-06T03:22:19;14.50;;;11.23;;
6111;SDS011;3086;48.802;9.394;2024-03-06T03:25:55;14.70;;;11.17;;
6111;SDS011;3086;48.802;9.394;2024-03-06T03:29:22;16.00;;;11.77;;
6111;SDS011;3086;48.802;9.394;2024-03-06T03:32:47;14.07;;;10.60;;
6111;SDS011;3086;48.802;9.394;2024-03-06T03:36:09;13.57;;;11.23;;
6111;SDS011;3086;48.802;9.394;2024-03-06T03:39:33;15.10;;;10.40;;
6111;SDS011;3086;48.802;9.394;2024-03-06T03:43:02;13.87;;;9.87;;
6111;SDS011;3086;48.802;9.394;2024-03-06T03:46:27;14.60;;;10.80;;
6111;SDS011;3086;48.802;9.394;2024-03-06T03:49:49;12.23;;;10.17;;
6111;SDS011;3086;48.802;9.394;2024-03-06T03:53:14;13.63;;;10.50;;
6111;SDS011;3086;48.802;9.394;2024-03-06T03:56:36;14.50;;;10.87;;
6111;SDS011;3086;48.802;9.394;2024-03-06T03:59:57;15.73;;;9.73;;
6111;SDS011;3086;48.802;9.394;2024-03-06T04:03:21;14.30;;;10.87;;
6111;SDS011;3086;48.802;9.394;2024-03-06T04:06:46;13.33;;;10.20;;
6111;SDS011;3086;48.802;9.394;2024-03-06T04:10:10;11.73;;;9.93;;
6111;SDS011;3086;48.802;9.394;2024-03-06T04:13:47;11.97;;;9.97;;
6111;SDS011;3086;48.802;9.394;2024-03-06T04:18:02;14.90;;;10.73;;
6111;SDS011;3086;48.802;9.394;2024-03-06T04:21:41;11.83;;;10.57;;
6111;SDS011;3086;48.802;9.394;2024-03-06T04:25:18;13.13;;;10.63;;
6111;SDS011;3086;48.802;9.394;2024-03-06T04:28:41;14.67;;;12.17;;
6111;SDS011;3086;48.802;9.394;2024-03-06T04:32:02;14.67;;;10.63;;
6111;SDS011;3086;48.802;9.394;2024-03-06T04:35:30;11.57;;;9.33;;
6111;SDS011;3086;48.802;9.394;2024-03-06T04:38:53;10.37;;;8.63;;
6111;SDS011;3086;48.802;9.394;2024-03-06T04:42:18;10.23;;;8.97;;
6111;SDS011;3086;48.802;9.394;2024-03-06T04:46:00;10.77;;;9.37;;
6111;SDS011;3086;48.802;9.394;2024-03-06T04:49:21;11.27;;;8.80;;
6111;SDS011;3086;48.802;9.394;2024-03-06T04:52:47;10.53;;;8.97;;
6111;SDS011;3086;48.802;9.394;2024-03-06T05:00:44;11.83;;;8.93;;
6111;SDS011;3086;48.802;9.394;2024-03-06T05:08:59;16.90;;;9.77;;
6111;SDS011;3086;48.802;9.394;2024-03-06T05:12:13;12.27;;;8.97;;
6111;SDS011;3086;48.802;9.394;2024-03-06T05:15:34;10.13;;;8.33;;
6111;SDS011;3086;48.802;9.394;2024-03-06T05:18:58;9.53;;;8.43;;
6111;SDS011;3086;48.802;9.394;2024-03-06T05:22:21;10.10;;;9.03;;
6111;SDS011;3086;48.802;9.394;2024-03-06T05:25:43;9.63;;;8.63;;
6111;SDS011;3086;48.802;9.394;2024-03-06T05:29:05;9.97;;;8.97;;
6111;SDS011;3086;48.802;9.394;2024-03-06T05:32:27;11.67;;;8.87;;
6111;SDS011;3086;48.802;9.394;2024-03-06T05:35:51;9.47;;;8.43;;
6111;SDS011;3086;48.802;9.394;2024-03-06T05:39:17;9.53;;;8.53;;
6111;SDS011;3086;48.802;9.394;2024-03-06T05:42:42;12.07;;;8.90;;
6111;SDS011;3086;48.802;9.394;2024-03-06T05:46:07;10.00;;;8.40;;
6111;SDS011;3086;48.802;9.394;2024-03-06T05:49:33;11.17;;;9.90;;
6111;SDS011;3086;48.802;9.394;2024-03-06T06:29:52;15.67;;;12.93;;
6111;SDS011;3086;48.802;9.394;2024-03-06T06:33:15;15.00;;;12.73;;
6111;SDS011;3086;48.802;9.394;2024-03-06T06:36:37;17.17;;;13.33;;
6111;SDS011;3086;48.802;9.394;2024-03-06T06:44:15;15.10;;;12.40;;
6111;SDS011;3086;48.802;9.394;2024-03-06T07:28:54;14.97;;;11.67;;
6111;SDS011;3086;48.802;9.394;2024-03-06T07:32:34;19.27;;;12.00;;
6111;SDS011;3086;48.802;9.394;2024-03-06T09:16:48;14.87;;;11.97;;
6111;SDS011;3086;48.802;9.394;2024-03-06T09:29:11;14.73;;;12.83;;
6111;SDS011;3086;48.802;9.394;2024-03-06T09:32:50;16.77;;;13.60;;
6111;SDS011;3086;48.802;9.394;2024-03-06T09:36:40;14.80;;;12.77;;
6111;SDS011;3086;48.802;9.394;2024-03-06T10:23:58;16.97;;;15.17;;
6111;SDS011;3086;48.802;9.394;2024-03-06T10:27:28;16.53;;;14.83;;
6111;SDS011;3086;48.802;9.394;2024-03-06T10:31:54;21.33;;;16.73;;
6111;SDS011;3086;48.802;9.394;2024-03-06T10:35:18;23.53;;;17.70;;
6111;SDS011;3086;48.802;9.394;2024-03-06T10:51:11;20.50;;;15.90;;
6111;SDS011;3086;48.802;9.394;2024-03-06T11:33:52;24.20;;;19.97;;
6111;SDS011;3086;48.802;9.394;2024-03-06T11:37:19;26.33;;;20.07;;
6111;SDS011;3086;48.802;9.394;2024-03-06T11:40:43;28.07;;;21.07;;
6111;SDS011;3086;48.802;9.394;2024-03-06T11:44:05;25.67;;;19.40;;
6111;SDS011;3086;48.802;9.394;2024-03-06T11:47:30;25.00;;;19.77;;
6111;SDS011;3086;48.802;9.394;2024-03-06T11:50:51;25.67;;;19.07;;
6111;SDS011;3086;48.802;9.394;2024-03-06T11:54:15;25.70;;;20.43;;
6111;SDS011;3086;48.802;9.394;2024-03-06T11:57:38;24.37;;;18.83;;
6111;SDS011;3086;48.802;9.394;2024-03-06T12:01:02;24.43;;;19.53;;
6111;SDS011;3086;48.802;9.394;2024-03-06T12:04:27;27.83;;;21.07;;
6111;SDS011;3086;48.802;9.394;2024-03-06T12:07:51;28.30;;;20.63;;
6111;SDS011;3086;48.802;9.394;2024-03-06T12:11:15;28.33;;;20.77;;
6111;SDS011;3086;48.802;9.394;2024-03-06T12:14:41;30.37;;;21.60;;
6111;SDS011;3086;48.802;9.394;2024-03-06T12:18:05;30.10;;;21.70;;
6111;SDS011;3086;48.802;9.394;2024-03-06T12:21:31;27.10;;;21.53;;
6111;SDS011;3086;48.802;9.394;2024-03-06T12:25:00;28.83;;;21.10;;
6111;SDS011;3086;48.802;9.394;2024-03-06T12:28:23;28.17;;;22.47;;
6111;SDS011;3086;48.802;9.394;2024-03-06T12:31:45;28.93;;;21.73;;
6111;SDS011;3086;48.802;9.394;2024-03-06T12:35:23;32.00;;;23.33;;
6111;SDS011;3086;48.802;9.394;2024-03-06T12:38:53;30.50;;;21.77;;
6111;SDS011;3086;48.802;9.394;2024-03-06T12:42:17;35.93;;;23.40;;
6111;SDS011;3086;48.802;9.394;2024-03-06T12:45:38;31.80;;;24.80;;
6111;SDS011;3086;48.802;9.394;2024-03-06T12:49:04;29.47;;;22.43;;
6111;SDS011;3086;48.802;9.394;2024-03-06T12:52:26;33.10;;;24.40;;
6111;SDS011;3086;48.802;9.394;2024-03-06T12:55:49;32.90;;;25.30;;
6111;SDS011;3086;48.802;9.394;2024-03-06T12:59:24;29.07;;;21.30;;
6111;SDS011;3086;48.802;9.394;2024-03-06T13:02:52;27.23;;;21.20;;
6111;SDS011;3086;48.802;9.394;2024-03-06T13:06:16;27.13;;;21.23;;
6111;SDS011;3086;48.802;9.394;2024-03-06T13:09:40;27.07;;;20.33;;
6111;SDS011;3086;48.802;9.394;2024-03-06T13:13:20;29.17;;;22.37;;
6111;SDS011;3086;48.802;9.394;2024-03-06T13:16:45;28.70;;;21.47;;
6111;SDS011;3086;48.802;9.394;2024-03-06T13:20:09;29.47;;;22.23;;
6111;SDS011;3086;48.802;9.394;2024-03-06T13:23:32;27.50;;;20.53;;
6111;SDS011;3086;48.802;9.394;2024-03-06T13:26:55;27.07;;;19.70;;
6111;SDS011;3086;48.802;9.394;2024-03-06T13:30:24;26.20;;;21.03;;
6111;SDS011;3086;48.802;9.394;2024-03-06T13:33:46;31.80;;;23.83;;
6111;SDS011;3086;48.802;9.394;2024-03-06T13:37:09;32.50;;;24.17;;
6111;SDS011;3086;48.802;9.394;2024-03-06T13:40:31;33.47;;;24.03;;
6111;SDS011;3086;48.802;9.394;2024-03-06T15:02:45;23.90;;;16.53;;
6111;SDS011;3086;48.802;9.394;2024-03-06T16:01:51;43.70;;;28.30;;
6111;SDS011;3086;48.802;9.394;2024-03-06T16:05:30;41.27;;;27.63;;
6111;SDS011;3086;48.802;9.394;2024-03-06T16:08:52;43.97;;;28.33;;
6111;SDS011;3086;48.802;9.394;2024-03-06T16:12:14;51.10;;;31.73;;
6111;SDS011;3086;48.802;9.394;2024-03-06T16:15:37;46.43;;;30.27;;
6111;SDS011;3086;48.802;9.394;2024-03-06T16:28:07;46.17;;;31.67;;
6111;SDS011;3086;48.802;9.394;2024-03-06T17:47:02;56.60;;;35.57;;
6111;SDS011;3086;48.802;9.394;2024-03-06T17:50:42;58.07;;;37.23;;
6111;SDS011;3086;48.802;9.394;2024-03-06T17:54:19;61.67;;;38.33;;
6111;SDS011;3086;48.802;9.394;2024-03-06T17:58:19;63.37;;;39.10;;
6111;SDS011;3086;48.802;9.394;2024-03-06T18:02:24;64.27;;;36.93;;
6111;SDS011;3086;48.802;9.394;2024-03-06T18:06:02;57.87;;;37.07;;
6111;SDS011;3086;48.802;9.394;2024-03-06T18:09:26;72.20;;;44.40;;
6111;SDS011;3086;48.802;9.394;2024-03-06T18:12:50;63.40;;;41.47;;
6111;SDS011;3086;48.802;9.394;2024-03-06T18:16:22;61.20;;;39.53;;
6111;SDS011;3086;48.802;9.394;2024-03-06T18:19:53;61.93;;;38.90;;
6111;SDS011;3086;48.802;9.394;2024-03-06T18:23:16;59.27;;;35.97;;
6111;SDS011;3086;48.802;9.394;2024-03-06T18:26:37;60.53;;;36.77;;
6111;SDS011;3086;48.802;9.394;2024-03-06T18:29:59;65.23;;;38.60;;
6111;SDS011;3086;48.802;9.394;2024-03-06T18:33:21;60.17;;;37.40;;
6111;SDS011;3086;48.802;9.394;2024-03-06T18:36:43;59.43;;;36.00;;
6111;SDS011;3086;48.802;9.394;2024-03-06T18:40:06;57.00;;;35.43;;
6111;SDS011;3086;48.802;9.394;2024-03-06T18:43:30;52.17;;;33.57;;
6111;SDS011;3086;48.802;9.394;2024-03-06T18:46:52;55.70;;;35.93;;
6111;SDS011;3086;48.802;9.394;2024-03-06T18:50:17;65.17;;;37.43;;
6111;SDS011;3086;48.802;9.394;2024-03-06T18:53:41;75.40;;;42.00;;
6111;SDS011;3086;48.802;9.394;2024-03-06T18:57:04;65.27;;;40.80;;
6111;SDS011;3086;48.802;9.394;2024-03-06T19:00:42;55.63;;;36.70;;
6111;SDS011;3086;48.802;9.394;2024-03-06T19:16:42;59.07;;;36.20;;
6111;SDS011;3086;48.802;9.394;2024-03-06T19:21:05;67.70;;;42.97;;
6111;SDS011;3086;48.802;9.394;2024-03-06T20:42:19;55.57;;;34.53;;
6111;SDS011;3086;48.802;9.394;2024-03-06T21:02:18;55.90;;;35.50;;
6111;SDS011;3086;48.802;9.394;2024-03-06T21:05:40;55.13;;;36.60;;
6111;SDS011;3086;48.802;9.394;2024-03-06T21:09:01;55.73;;;35.13;;
6111;SDS011;3086;48.802;9.394;2024-03-06T21:12:24;56.83;;;35.30;;
6111;SDS011;3086;48.802;9.394;2024-03-06T21:15:45;50.30;;;34.57;;
6111;SDS011;3086;48.802;9.394;2024-03-06T21:19:08;56.40;;;35.67;;
6111;SDS011;3086;48.802;9.394;2024-03-06T21:22:29;55.13;;;35.20;;
6111;SDS011;3086;48.802;9.394;2024-03-06T21:25:51;55.47;;;35.43;;
6111;SDS011;3086;48.802;9.394;2024-03-06T21:29:13;56.03;;;34.83;;
6111;SDS011;3086;48.802;9.394;2024-03-06T21:32:35;55.43;;;35.13;;
6111;SDS011;3086;48.802;9.394;2024-03-06T21:35:58;56.87;;;35.80;;
